sensor_id;sensor_type;location;lat;lon;timestamp;pressure;altitude;pressure_sealevel;temperature;humidity
45872;BME280;32333;55.844;-3.210;2022-11-20T00:02:27;98477.09;;;3.05;100.00
45872;BME280;32333;55.844;-3.210;2022-11-20T00:05:09;98475.97;;;2.83;100.00
45872;BME280;32333;55.844;-3.210;2022-11-20T00:09:35;98466.67;;;3.78;100.00
45872;BME280;32333;55.844;-3.210;2022-11-20T00:14:36;98450.70;;;3.74;100.00
45872;BME280;32333;55.844;-3.210;2022-11-20T00:17:05;98445.01;;;3.14;100.00
45872;BME280;32333;55.844;-3.210;2022-11-20T00:19:34;98437.14;;;3.10;100.00
45872;BME280;32333;55.844;-3.210;2022-11-20T00:22:07;98436.31;;;3.38;100.00
45872;BME280;32333;55.844;-3.210;2022-11-20T00:24:35;98434.64;;;3.86;100.00
45872;BME280;32333;55.844;-3.210;2022-11-20T00:27:02;98424.81;;;3.47;100.00
45872;BME280;32333;55.844;-3.210;2022-11-20T00:29:32;98420.38;;;3.21;100.00
45872;BME280;32333;55.844;-3.210;2022-11-20T00:31:59;98423.04;;;3.49;100.00
45872;BME280;32333;55.844;-3.210;2022-11-20T00:34:31;98421.28;;;3.17;100.00
45872;BME280;32333;55.844;-3.210;2022-11-20T00:36:59;98418.56;;;3.30;100.00
45872;BME280;32333;55.844;-3.210;2022-11-20T00:39:27;98412.19;;;3.00;100.00
45872;BME280;32333;55.844;-3.210;2022-11-20T00:41:56;98389.49;;;2.63;100.00
45872;BME280;32333;55.844;-3.210;2022-11-20T00:44:36;98394.68;;;3.12;100.00
45872;BME280;32333;55.844;-3.210;2022-11-20T00:47:03;98394.11;;;2.99;100.00
45872;BME280;32333;55.844;-3.210;2022-11-20T00:49:32;98392.26;;;3.32;100.00
45872;BME280;32333;55.844;-3.210;2022-11-20T00:52:00;98387.89;;;2.91;100.00
45872;BME280;32333;55.844;-3.210;2022-11-20T00:54:29;98400.09;;;2.65;100.00
45872;BME280;32333;55.844;-3.210;2022-11-20T00:57:03;98387.27;;;2.33;100.00
45872;BME280;32333;55.844;-3.210;2022-11-20T00:59:33;98387.96;;;2.86;100.00
45872;BME280;32333;55.844;-3.210;2022-11-20T01:05:11;98381.47;;;3.27;100.00
45872;BME280;32333;55.844;-3.210;2022-11-20T01:07:40;98382.09;;;3.31;100.00
45872;BME280;32333;55.844;-3.210;2022-11-20T01:14:38;98378.05;;;3.91;100.00
45872;BME280;32333;55.844;-3.210;2022-11-20T01:17:10;98372.75;;;3.95;100.00
45872;BME280;32333;55.844;-3.210;2022-11-20T01:19:42;98371.58;;;3.25;100.00
45872;BME280;32333;55.844;-3.210;2022-11-20T01:22:39;98368.77;;;3.54;100.00
45872;BME280;32333;55.844;-3.210;2022-11-20T01:25:08;98363.90;;;3.45;100.00
45872;BME280;32333;55.844;-3.210;2022-11-20T01:27:39;98366.88;;;2.90;100.00
45872;BME280;32333;55.844;-3.210;2022-11-20T01:30:07;98361.72;;;2.84;100.00
45872;BME280;32333;55.844;-3.210;2022-11-20T01:32:36;98362.12;;;3.32;100.00
45872;BME280;32333;55.844;-3.210;2022-11-20T01:35:04;98359.76;;;2.97;100.00
45872;BME280;32333;55.844;-3.210;2022-11-20T01:37:32;98361.62;;;3.37;100.00
45872;BME280;32333;55.844;-3.210;2022-11-20T01:40:01;98355.59;;;3.58;100.00
45872;BME280;32333;55.844;-3.210;2022-11-20T01:44:55;98349.71;;;3.43;100.00
45872;BME280;32333;55.844;-3.210;2022-11-20T01:47:29;98346.03;;;3.67;100.00
45872;BME280;32333;55.844;-3.210;2022-11-20T01:50:03;98351.87;;;4.33;100.00
45872;BME280;32333;55.844;-3.210;2022-11-20T01:52:36;98349.49;;;3.56;100.00
45872;BME280;32333;55.844;-3.210;2022-11-20T02:05:57;98327.76;;;2.85;100.00
45872;BME280;32333;55.844;-3.210;2022-11-20T02:09:16;98322.91;;;2.45;100.00
45872;BME280;32333;55.844;-3.210;2022-11-20T02:15:28;98316.50;;;3.75;100.00
45872;BME280;32333;55.844;-3.210;2022-11-20T02:18:14;98314.56;;;3.70;100.00
45872;BME280;32333;55.844;-3.210;2022-11-20T02:21:59;98309.86;;;3.44;100.00
45872;BME280;32333;55.844;-3.210;2022-11-20T02:24:29;98302.84;;;3.79;100.00
45872;BME280;32333;55.844;-3.210;2022-11-20T02:26:58;98304.25;;;3.27;100.00
45872;BME280;32333;55.844;-3.210;2022-11-20T02:29:33;98306.07;;;3.38;100.00
45872;BME280;32333;55.844;-3.210;2022-11-20T02:32:03;98303.56;;;3.03;100.00
45872;BME280;32333;55.844;-3.210;2022-11-20T02:34:32;98300.11;;;2.96;100.00
45872;BME280;32333;55.844;-3.210;2022-11-20T02:37:00;98301.47;;;3.31;100.00
45872;BME280;32333;55.844;-3.210;2022-11-20T02:39:29;98299.69;;;3.37;100.00
45872;BME280;32333;55.844;-3.210;2022-11-20T02:42:00;98303.42;;;3.56;100.00
45872;BME280;32333;55.844;-3.210;2022-11-20T02:44:36;98299.22;;;3.49;100.00
45872;BME280;32333;55.844;-3.210;2022-11-20T05:48:14;98143.87;;;4.07;100.00
45872;BME280;32333;55.844;-3.210;2022-11-20T05:50:42;98148.38;;;5.07;100.00
45872;BME280;32333;55.844;-3.210;2022-11-20T05:53:10;98144.88;;;5.21;100.00
45872;BME280;32333;55.844;-3.210;2022-11-20T05:55:37;98141.47;;;4.58;100.00
45872;BME280;32333;55.844;-3.210;2022-11-20T05:58:06;98135.84;;;4.73;100.00
45872;BME280;32333;55.844;-3.210;2022-11-20T06:00:33;98131.62;;;5.44;100.00
45872;BME280;32333;55.844;-3.210;2022-11-20T06:03:03;98124.74;;;4.66;100.00
45872;BME280;32333;55.844;-3.210;2022-11-20T06:05:44;98121.52;;;4.60;100.00
45872;BME280;32333;55.844;-3.210;2022-11-20T06:08:12;98121.85;;;4.90;100.00
45872;BME280;32333;55.844;-3.210;2022-11-20T06:10:40;98121.21;;;5.37;100.00
45872;BME280;32333;55.844;-3.210;2022-11-20T06:14:37;98124.83;;;5.93;100.00
45872;BME280;32333;55.844;-3.210;2022-11-20T06:17:05;98126.26;;;3.74;100.00
45872;BME280;32333;55.844;-3.210;2022-11-20T06:19:34;98122.51;;;6.16;100.00
45872;BME280;32333;55.844;-3.210;2022-11-20T06:22:02;98132.25;;;6.39;100.00
45872;BME280;32333;55.844;-3.210;2022-11-20T06:24:34;98130.16;;;5.67;100.00
45872;BME280;32333;55.844;-3.210;2022-11-20T06:27:02;98123.03;;;5.89;100.00
45872;BME280;32333;55.844;-3.210;2022-11-20T06:29:29;98115.34;;;4.79;100.00
45872;BME280;32333;55.844;-3.210;2022-11-20T06:32:01;98116.21;;;5.08;100.00
45872;BME280;32333;55.844;-3.210;2022-11-20T06:34:30;98116.24;;;5.20;100.00
45872;BME280;32333;55.844;-3.210;2022-11-20T06:36:58;98111.00;;;5.14;100.00
45872;BME280;32333;55.844;-3.210;2022-11-20T06:39:27;98106.79;;;5.61;100.00
45872;BME280;32333;55.844;-3.210;2022-11-20T06:41:55;98104.42;;;4.66;100.00
45872;BME280;32333;55.844;-3.210;2022-11-20T06:55:43;98125.49;;;4.41;100.00
45872;BME280;32333;55.844;-3.210;2022-11-20T06:58:14;98128.04;;;4.24;100.00
45872;BME280;32333;55.844;-3.210;2022-11-20T07:00:43;98126.59;;;4.13;100.00
45872;BME280;32333;55.844;-3.210;2022-11-20T07:03:12;98121.36;;;4.68;100.00
45872;BME280;32333;55.844;-3.210;2022-11-20T07:05:42;98122.89;;;4.27;100.00
45872;BME280;32333;55.844;-3.210;2022-11-20T07:08:13;98122.87;;;5.11;100.00
45872;BME280;32333;55.844;-3.210;2022-11-20T07:10:41;98123.03;;;5.28;100.00
45872;BME280;32333;55.844;-3.210;2022-11-20T07:14:36;98123.64;;;5.19;100.00
45872;BME280;32333;55.844;-3.210;2022-11-20T07:17:03;98123.28;;;5.22;100.00
45872;BME280;32333;55.844;-3.210;2022-11-20T07:19:30;98124.49;;;4.51;100.00
45872;BME280;32333;55.844;-3.210;2022-11-20T07:21:59;98127.13;;;5.04;100.00
45872;BME280;32333;55.844;-3.210;2022-11-20T07:24:26;98122.51;;;4.76;100.00
45872;BME280;32333;55.844;-3.210;2022-11-20T07:26:54;98124.81;;;4.66;100.00
45872;BME280;32333;55.844;-3.210;2022-11-20T07:29:23;98128.75;;;4.06;100.00
45872;BME280;32333;55.844;-3.210;2022-11-20T07:31:54;98128.24;;;4.16;100.00
45872;BME280;32333;55.844;-3.210;2022-11-20T07:34:23;98133.98;;;5.16;100.00
45872;BME280;32333;55.844;-3.210;2022-11-20T07:36:50;98130.02;;;5.05;100.00
45872;BME280;32333;55.844;-3.210;2022-11-20T07:39:17;98136.90;;;5.47;100.00
45872;BME280;32333;55.844;-3.210;2022-11-20T07:41:46;98133.27;;;5.08;100.00
45872;BME280;32333;55.844;-3.210;2022-11-20T07:44:36;98134.53;;;5.01;100.00
45872;BME280;32333;55.844;-3.210;2022-11-20T07:47:03;98139.52;;;5.33;100.00
45872;BME280;32333;55.844;-3.210;2022-11-20T07:49:30;98137.64;;;6.02;100.00
45872;BME280;32333;55.844;-3.210;2022-11-20T07:51:58;98137.95;;;6.09;100.00
45872;BME280;32333;55.844;-3.210;2022-11-20T07:54:26;98140.07;;;6.61;100.00
45872;BME280;32333;55.844;-3.210;2022-11-20T07:56:54;98137.84;;;6.73;100.00
45872;BME280;32333;55.844;-3.210;2022-11-20T07:59:22;98138.88;;;6.51;100.00
45872;BME280;32333;55.844;-3.210;2022-11-20T08:01:51;98140.75;;;6.35;100.00
45872;BME280;32333;55.844;-3.210;2022-11-20T08:04:19;98131.93;;;7.28;100.00
45872;BME280;32333;55.844;-3.210;2022-11-20T08:06:46;98140.45;;;6.41;100.00
45872;BME280;32333;55.844;-3.210;2022-11-20T08:09:15;98146.18;;;6.44;100.00
45872;BME280;32333;55.844;-3.210;2022-11-20T08:11:46;98144.92;;;7.35;100.00
45872;BME280;32333;55.844;-3.210;2022-11-20T08:14:36;98144.56;;;6.60;100.00
45872;BME280;32333;55.844;-3.210;2022-11-20T08:17:03;98149.57;;;5.38;100.00
45872;BME280;32333;55.844;-3.210;2022-11-20T08:19:31;98152.64;;;6.51;100.00
45872;BME280;32333;55.844;-3.210;2022-11-20T08:22:00;98151.52;;;7.31;100.00
45872;BME280;32333;55.844;-3.210;2022-11-20T08:24:28;98154.27;;;7.42;100.00
45872;BME280;32333;55.844;-3.210;2022-11-20T08:26:57;98153.89;;;7.09;100.00
45872;BME280;32333;55.844;-3.210;2022-11-20T08:29:26;98153.33;;;7.02;100.00
45872;BME280;32333;55.844;-3.210;2022-11-20T08:31:54;98152.46;;;7.78;100.00
45872;BME280;32333;55.844;-3.210;2022-11-20T08:34:29;98149.18;;;6.71;100.00
45872;BME280;32333;55.844;-3.210;2022-11-20T08:37:00;98151.88;;;8.40;100.00
45872;BME280;32333;55.844;-3.210;2022-11-20T08:39:31;98158.93;;;6.72;100.00
45872;BME280;32333;55.844;-3.210;2022-11-20T08:42:00;98162.16;;;6.86;100.00
45872;BME280;32333;55.844;-3.210;2022-11-20T08:44:37;98160.72;;;7.11;100.00
45872;BME280;32333;55.844;-3.210;2022-11-20T08:47:05;98162.53;;;7.32;100.00
45872;BME280;32333;55.844;-3.210;2022-11-20T08:49:35;98161.63;;;7.19;100.00
45872;BME280;32333;55.844;-3.210;2022-11-20T08:52:05;98166.04;;;6.76;100.00
45872;BME280;32333;55.844;-3.210;2022-11-20T08:54:34;98163.85;;;7.60;100.00
45872;BME280;32333;55.844;-3.210;2022-11-20T08:57:01;98162.83;;;7.70;100.00
45872;BME280;32333;55.844;-3.210;2022-11-20T08:59:32;98162.65;;;6.30;100.00
45872;BME280;32333;55.844;-3.210;2022-11-20T09:02:02;98154.46;;;7.33;100.00
45872;BME280;32333;55.844;-3.210;2022-11-20T09:04:31;98157.25;;;6.44;100.00
45872;BME280;32333;55.844;-3.210;2022-11-20T09:07:00;98155.50;;;6.40;100.00
45872;BME280;32333;55.844;-3.210;2022-11-20T09:09:28;98155.02;;;7.08;100.00
45872;BME280;32333;55.844;-3.210;2022-11-20T09:11:56;98159.58;;;6.39;100.00
45872;BME280;32333;55.844;-3.210;2022-11-20T09:15:00;98158.62;;;6.69;100.00
45872;BME280;32333;55.844;-3.210;2022-11-20T09:17:31;98160.30;;;6.22;100.00
45872;BME280;32333;55.844;-3.210;2022-11-20T09:19:59;98161.61;;;6.40;100.00
45872;BME280;32333;55.844;-3.210;2022-11-20T09:22:26;98158.60;;;6.46;100.00
45872;BME280;32333;55.844;-3.210;2022-11-20T09:24:54;98159.67;;;6.77;100.00
45872;BME280;32333;55.844;-3.210;2022-11-20T09:27:30;98159.77;;;7.08;100.00
45872;BME280;32333;55.844;-3.210;2022-11-20T09:29:59;98163.51;;;6.41;100.00
45872;BME280;32333;55.844;-3.210;2022-11-20T09:32:51;98163.86;;;6.79;100.00
45872;BME280;32333;55.844;-3.210;2022-11-20T09:35:19;98166.33;;;5.79;100.00
45872;BME280;32333;55.844;-3.210;2022-11-20T09:37:47;98164.58;;;6.99;100.00
45872;BME280;32333;55.844;-3.210;2022-11-20T09:40:20;98163.92;;;5.65;100.00
45872;BME280;32333;55.844;-3.210;2022-11-20T09:44:54;98165.87;;;5.58;100.00
45872;BME280;32333;55.844;-3.210;2022-11-20T09:47:36;98165.22;;;5.58;100.00
45872;BME280;32333;55.844;-3.210;2022-11-20T09:50:22;98163.58;;;4.75;100.00
45872;BME280;32333;55.844;-3.210;2022-11-20T09:57:56;98158.40;;;6.70;100.00
45872;BME280;32333;55.844;-3.210;2022-11-20T10:00:34;98155.21;;;5.35;100.00
45872;BME280;32333;55.844;-3.210;2022-11-20T10:05:42;98161.71;;;5.64;100.00
45872;BME280;32333;55.844;-3.210;2022-11-20T10:08:16;98153.25;;;6.02;100.00
45872;BME280;32333;55.844;-3.210;2022-11-20T10:10:52;98152.90;;;5.43;100.00
45872;BME280;32333;55.844;-3.210;2022-11-20T10:14:46;98152.59;;;6.23;100.00
45872;BME280;32333;55.844;-3.210;2022-11-20T10:19:07;98153.55;;;6.52;100.00
45872;BME280;32333;55.844;-3.210;2022-11-20T10:21:46;98149.43;;;5.74;100.00
45872;BME280;32333;55.844;-3.210;2022-11-20T10:24:31;98152.40;;;5.66;100.00
45872;BME280;32333;55.844;-3.210;2022-11-20T10:27:10;98150.46;;;6.26;100.00
45872;BME280;32333;55.844;-3.210;2022-11-20T10:29:42;98149.19;;;5.96;100.00
45872;BME280;32333;55.844;-3.210;2022-11-20T10:32:20;98151.13;;;6.47;100.00
45872;BME280;32333;55.844;-3.210;2022-11-20T10:34:57;98151.51;;;6.34;100.00
45872;BME280;32333;55.844;-3.210;2022-11-20T10:37:30;98146.60;;;5.72;100.00
45872;BME280;32333;55.844;-3.210;2022-11-20T10:40:03;98149.19;;;5.73;100.00
45872;BME280;32333;55.844;-3.210;2022-11-20T10:44:41;98140.81;;;5.03;100.00
45872;BME280;32333;55.844;-3.210;2022-11-20T10:47:16;98138.47;;;6.35;100.00
45872;BME280;32333;55.844;-3.210;2022-11-20T10:50:18;98136.87;;;5.90;100.00
45872;BME280;32333;55.844;-3.210;2022-11-20T10:52:55;98132.62;;;6.88;100.00
45872;BME280;32333;55.844;-3.210;2022-11-20T10:56:11;98133.29;;;5.94;100.00
45872;BME280;32333;55.844;-3.210;2022-11-20T10:59:02;98138.63;;;6.07;100.00
45872;BME280;32333;55.844;-3.210;2022-11-20T11:01:30;98140.14;;;5.15;100.00
45872;BME280;32333;55.844;-3.210;2022-11-20T11:07:16;98145.25;;;6.54;100.00
45872;BME280;32333;55.844;-3.210;2022-11-20T11:09:50;98146.09;;;5.66;100.00
45872;BME280;32333;55.844;-3.210;2022-11-20T11:14:57;98142.47;;;6.08;100.00
45872;BME280;32333;55.844;-3.210;2022-11-20T11:17:28;98146.86;;;5.94;100.00
45872;BME280;32333;55.844;-3.210;2022-11-20T11:20:16;98143.11;;;5.57;100.00
45872;BME280;32333;55.844;-3.210;2022-11-20T11:22:47;98147.50;;;5.76;100.00
45872;BME280;32333;55.844;-3.210;2022-11-20T11:25:32;98147.33;;;6.15;100.00
45872;BME280;32333;55.844;-3.210;2022-11-20T11:28:19;98143.80;;;5.37;100.00
45872;BME280;32333;55.844;-3.210;2022-11-20T11:30:48;98149.08;;;6.34;100.00
45872;BME280;32333;55.844;-3.210;2022-11-20T11:33:28;98148.67;;;5.79;100.00
45872;BME280;32333;55.844;-3.210;2022-11-20T11:35:59;98147.75;;;6.01;100.00
45872;BME280;32333;55.844;-3.210;2022-11-20T11:38:32;98152.05;;;6.19;100.00
45872;BME280;32333;55.844;-3.210;2022-11-20T11:41:02;98152.42;;;6.40;100.00
45872;BME280;32333;55.844;-3.210;2022-11-20T11:44:37;98153.63;;;7.35;100.00
45872;BME280;32333;55.844;-3.210;2022-11-20T11:47:09;98155.90;;;6.27;100.00
45872;BME280;32333;55.844;-3.210;2022-11-20T11:49:40;98157.02;;;6.33;100.00
45872;BME280;32333;55.844;-3.210;2022-11-20T11:52:13;98160.64;;;6.25;100.00
45872;BME280;32333;55.844;-3.210;2022-11-20T11:54:49;98155.67;;;4.97;100.00
45872;BME280;32333;55.844;-3.210;2022-11-20T11:57:26;98153.92;;;6.78;100.00
45872;BME280;32333;55.844;-3.210;2022-11-20T12:00:54;98146.91;;;7.10;100.00
45872;BME280;32333;55.844;-3.210;2022-11-20T12:03:28;98146.47;;;6.78;100.00
45872;BME280;32333;55.844;-3.210;2022-11-20T12:06:05;98148.58;;;6.21;100.00
45872;BME280;32333;55.844;-3.210;2022-11-20T12:08:43;98142.66;;;6.18;100.00
45872;BME280;32333;55.844;-3.210;2022-11-20T12:11:16;98147.34;;;6.59;100.00
45872;BME280;32333;55.844;-3.210;2022-11-20T12:14:38;98150.66;;;6.30;100.00
45872;BME280;32333;55.844;-3.210;2022-11-20T12:17:09;98152.30;;;6.60;100.00
45872;BME280;32333;55.844;-3.210;2022-11-20T12:19:43;98152.08;;;5.76;100.00
45872;BME280;32333;55.844;-3.210;2022-11-20T12:22:19;98150.87;;;5.63;100.00
45872;BME280;32333;55.844;-3.210;2022-11-20T12:24:57;98152.46;;;5.54;100.00
45872;BME280;32333;55.844;-3.210;2022-11-20T12:27:43;98155.34;;;5.94;100.00
45872;BME280;32333;55.844;-3.210;2022-11-20T12:32:12;98156.03;;;5.98;100.00
45872;BME280;32333;55.844;-3.210;2022-11-20T12:36:01;98157.93;;;6.28;100.00
45872;BME280;32333;55.844;-3.210;2022-11-20T12:39:10;98162.57;;;5.68;100.00
45872;BME280;32333;55.844;-3.210;2022-11-20T12:41:51;98160.52;;;5.69;100.00
45872;BME280;32333;55.844;-3.210;2022-11-20T12:45:03;98164.75;;;5.26;100.00
45872;BME280;32333;55.844;-3.210;2022-11-20T12:47:46;98167.19;;;4.82;100.00
45872;BME280;32333;55.844;-3.210;2022-11-20T12:50:30;98167.50;;;5.06;100.00
45872;BME280;32333;55.844;-3.210;2022-11-20T12:53:04;98164.17;;;5.44;100.00
45872;BME280;32333;55.844;-3.210;2022-11-20T12:55:38;98167.28;;;5.56;100.00
45872;BME280;32333;55.844;-3.210;2022-11-20T12:58:15;98168.06;;;5.63;100.00
45872;BME280;32333;55.844;-3.210;2022-11-20T13:00:55;98166.70;;;5.66;100.00
45872;BME280;32333;55.844;-3.210;2022-11-20T13:03:42;98168.45;;;5.19;100.00
45872;BME280;32333;55.844;-3.210;2022-11-20T13:06:16;98171.97;;;5.35;100.00
45872;BME280;32333;55.844;-3.210;2022-11-20T13:08:53;98166.77;;;4.47;100.00
45872;BME280;32333;55.844;-3.210;2022-11-20T13:11:31;98173.28;;;4.40;100.00
45872;BME280;32333;55.844;-3.210;2022-11-20T13:39:30;98156.12;;;5.54;100.00
45872;BME280;32333;55.844;-3.210;2022-11-20T13:44:53;98153.03;;;5.87;100.00
45872;BME280;32333;55.844;-3.210;2022-11-20T13:47:24;98153.12;;;5.28;100.00
45872;BME280;32333;55.844;-3.210;2022-11-20T13:49:55;98150.97;;;5.74;100.00
45872;BME280;32333;55.844;-3.210;2022-11-20T13:52:37;98151.54;;;6.26;100.00
45872;BME280;32333;55.844;-3.210;2022-11-20T13:55:17;98153.12;;;5.73;100.00
45872;BME280;32333;55.844;-3.210;2022-11-20T13:58:31;98146.06;;;5.93;100.00
45872;BME280;32333;55.844;-3.210;2022-11-20T14:01:09;98150.33;;;6.02;100.00
45872;BME280;32333;55.844;-3.210;2022-11-20T14:03:38;98151.17;;;5.51;100.00
45872;BME280;32333;55.844;-3.210;2022-11-20T14:06:16;98151.50;;;6.26;100.00
45872;BME280;32333;55.844;-3.210;2022-11-20T14:08:49;98149.70;;;6.06;100.00
45872;BME280;32333;55.844;-3.210;2022-11-20T14:11:19;98153.34;;;5.34;100.00
45872;BME280;32333;55.844;-3.210;2022-11-20T14:14:49;98153.71;;;5.83;100.00
45872;BME280;32333;55.844;-3.210;2022-11-20T14:17:22;98158.92;;;5.32;100.00
45872;BME280;32333;55.844;-3.210;2022-11-20T14:19:52;98155.80;;;6.21;100.00
45872;BME280;32333;55.844;-3.210;2022-11-20T14:22:24;98160.91;;;6.12;100.00
45872;BME280;32333;55.844;-3.210;2022-11-20T14:25:05;98163.71;;;6.41;100.00
45872;BME280;32333;55.844;-3.210;2022-11-20T14:27:36;98167.23;;;5.98;100.00
45872;BME280;32333;55.844;-3.210;2022-11-20T14:30:11;98164.15;;;6.95;100.00
45872;BME280;32333;55.844;-3.210;2022-11-20T14:32:42;98167.97;;;6.54;100.00
45872;BME280;32333;55.844;-3.210;2022-11-20T14:35:20;98173.61;;;6.48;100.00
45872;BME280;32333;55.844;-3.210;2022-11-20T14:37:48;98169.61;;;6.37;100.00
45872;BME280;32333;55.844;-3.210;2022-11-20T14:40:34;98171.35;;;6.26;100.00
45872;BME280;32333;55.844;-3.210;2022-11-20T14:44:36;98168.84;;;6.63;100.00
45872;BME280;32333;55.844;-3.210;2022-11-20T14:47:31;98170.06;;;6.66;100.00
45872;BME280;32333;55.844;-3.210;2022-11-20T14:50:16;98169.06;;;6.67;100.00
45872;BME280;32333;55.844;-3.210;2022-11-20T14:53:06;98169.91;;;6.72;100.00
45872;BME280;32333;55.844;-3.210;2022-11-20T14:56:10;98168.57;;;6.19;100.00
45872;BME280;32333;55.844;-3.210;2022-11-20T14:59:05;98172.55;;;6.30;100.00
45872;BME280;32333;55.844;-3.210;2022-11-20T15:01:34;98172.62;;;6.29;100.00
45872;BME280;32333;55.844;-3.210;2022-11-20T15:08:53;98176.31;;;7.31;100.00
45872;BME280;32333;55.844;-3.210;2022-11-20T15:11:34;98176.11;;;5.79;100.00
45872;BME280;32333;55.844;-3.210;2022-11-20T15:14:36;98165.23;;;7.29;100.00
45872;BME280;32333;55.844;-3.210;2022-11-20T15:17:07;98169.22;;;6.61;100.00
45872;BME280;32333;55.844;-3.210;2022-11-20T15:19:35;98173.91;;;5.97;100.00
45872;BME280;32333;55.844;-3.210;2022-11-20T15:22:04;98175.33;;;6.24;100.00
45872;BME280;32333;55.844;-3.210;2022-11-20T15:24:36;98174.67;;;5.70;100.00
45872;BME280;32333;55.844;-3.210;2022-11-20T15:27:04;98178.90;;;5.69;100.00
45872;BME280;32333;55.844;-3.210;2022-11-20T15:29:32;98182.17;;;6.11;100.00
45872;BME280;32333;55.844;-3.210;2022-11-20T15:32:00;98184.77;;;6.24;100.00
45872;BME280;32333;55.844;-3.210;2022-11-20T15:34:28;98184.71;;;6.04;100.00
45872;BME280;32333;55.844;-3.210;2022-11-20T15:36:57;98184.67;;;6.35;100.00
45872;BME280;32333;55.844;-3.210;2022-11-20T15:39:27;98185.60;;;6.09;100.00
45872;BME280;32333;55.844;-3.210;2022-11-20T15:41:57;98182.84;;;5.85;100.00
45872;BME280;32333;55.844;-3.210;2022-11-20T15:44:38;98176.50;;;5.54;100.00
45872;BME280;32333;55.844;-3.210;2022-11-20T15:47:11;98177.68;;;4.47;100.00
45872;BME280;32333;55.844;-3.210;2022-11-20T15:56:50;98188.22;;;5.56;100.00
45872;BME280;32333;55.844;-3.210;2022-11-20T15:59:20;98196.92;;;6.03;100.00
45872;BME280;32333;55.844;-3.210;2022-11-20T16:02:10;98195.44;;;5.49;100.00
45872;BME280;32333;55.844;-3.210;2022-11-20T16:04:51;98201.14;;;5.75;100.00
45872;BME280;32333;55.844;-3.210;2022-11-20T16:07:19;98203.35;;;6.43;100.00
45872;BME280;32333;55.844;-3.210;2022-11-20T16:10:05;98208.08;;;5.96;100.00
45872;BME280;32333;55.844;-3.210;2022-11-20T16:14:36;98213.21;;;6.61;100.00
45872;BME280;32333;55.844;-3.210;2022-11-20T16:17:06;98223.16;;;5.82;100.00
45872;BME280;32333;55.844;-3.210;2022-11-20T16:19:34;98227.34;;;6.64;100.00
45872;BME280;32333;55.844;-3.210;2022-11-20T16:22:10;98234.36;;;6.35;100.00
45872;BME280;32333;55.844;-3.210;2022-11-20T16:24:43;98234.85;;;6.25;100.00
45872;BME280;32333;55.844;-3.210;2022-11-20T16:27:17;98230.73;;;6.16;100.00
45872;BME280;32333;55.844;-3.210;2022-11-20T16:29:51;98235.76;;;6.48;100.00
45872;BME280;32333;55.844;-3.210;2022-11-20T16:32:54;98235.24;;;6.12;100.00
45872;BME280;32333;55.844;-3.210;2022-11-20T16:36:41;98234.92;;;6.06;100.00
45872;BME280;32333;55.844;-3.210;2022-11-20T16:39:10;98239.95;;;5.60;100.00
45872;BME280;32333;55.844;-3.210;2022-11-20T16:41:39;98243.74;;;4.95;100.00
45872;BME280;32333;55.844;-3.210;2022-11-20T16:44:35;98245.85;;;5.35;100.00
45872;BME280;32333;55.844;-3.210;2022-11-20T16:47:03;98246.19;;;5.57;100.00
45872;BME280;32333;55.844;-3.210;2022-11-20T16:49:31;98243.02;;;5.86;100.00
45872;BME280;32333;55.844;-3.210;2022-11-20T17:01:48;98251.92;;;6.23;100.00
45872;BME280;32333;55.844;-3.210;2022-11-20T17:04:16;98249.23;;;5.77;100.00
45872;BME280;32333;55.844;-3.210;2022-11-20T17:06:43;98251.54;;;6.34;100.00
45872;BME280;32333;55.844;-3.210;2022-11-20T17:09:13;98251.37;;;5.71;100.00
45872;BME280;32333;55.844;-3.210;2022-11-20T17:11:42;98248.83;;;5.78;100.00
45872;BME280;32333;55.844;-3.210;2022-11-20T17:14:35;98242.01;;;5.54;100.00
45872;BME280;32333;55.844;-3.210;2022-11-20T17:17:03;98247.57;;;6.07;100.00
45872;BME280;32333;55.844;-3.210;2022-11-20T17:19:31;98256.53;;;6.94;100.00
45872;BME280;32333;55.844;-3.210;2022-11-20T17:22:00;98264.51;;;7.53;100.00
45872;BME280;32333;55.844;-3.210;2022-11-20T17:24:28;98268.92;;;7.11;100.00
45872;BME280;32333;55.844;-3.210;2022-11-20T17:26:56;98270.06;;;7.01;100.00
45872;BME280;32333;55.844;-3.210;2022-11-20T17:29:24;98270.48;;;6.55;100.00
45872;BME280;32333;55.844;-3.210;2022-11-20T17:31:53;98269.55;;;6.85;100.00
45872;BME280;32333;55.844;-3.210;2022-11-20T17:34:23;98268.51;;;6.04;100.00
45872;BME280;32333;55.844;-3.210;2022-11-20T17:36:51;98271.66;;;4.90;100.00
45872;BME280;32333;55.844;-3.210;2022-11-20T17:39:18;98274.25;;;4.51;100.00
45872;BME280;32333;55.844;-3.210;2022-11-20T17:41:47;98278.31;;;4.90;100.00
45872;BME280;32333;55.844;-3.210;2022-11-20T17:44:34;98283.82;;;5.14;100.00
45872;BME280;32333;55.844;-3.210;2022-11-20T17:47:02;98294.04;;;5.03;100.00
45872;BME280;32333;55.844;-3.210;2022-11-20T17:49:30;98299.32;;;4.61;100.00
45872;BME280;32333;55.844;-3.210;2022-11-20T17:51:58;98302.04;;;4.37;100.00
45872;BME280;32333;55.844;-3.210;2022-11-20T17:54:28;98304.76;;;4.94;100.00
45872;BME280;32333;55.844;-3.210;2022-11-20T17:56:56;98305.71;;;3.97;100.00
45872;BME280;32333;55.844;-3.210;2022-11-20T17:59:24;98308.94;;;4.75;100.00
45872;BME280;32333;55.844;-3.210;2022-11-20T18:01:52;98311.56;;;4.52;100.00
45872;BME280;32333;55.844;-3.210;2022-11-20T18:04:20;98313.83;;;4.98;100.00
45872;BME280;32333;55.844;-3.210;2022-11-20T18:06:47;98316.83;;;4.34;100.00
45872;BME280;32333;55.844;-3.210;2022-11-20T18:09:16;98317.66;;;4.26;100.00
45872;BME280;32333;55.844;-3.210;2022-11-20T18:11:46;98321.25;;;4.04;100.00
45872;BME280;32333;55.844;-3.210;2022-11-20T18:14:45;98326.09;;;3.77;100.00
45872;BME280;32333;55.844;-3.210;2022-11-20T18:17:16;98324.98;;;3.80;100.00
45872;BME280;32333;55.844;-3.210;2022-11-20T18:19:46;98321.20;;;3.66;100.00
45872;BME280;32333;55.844;-3.210;2022-11-20T18:22:16;98316.52;;;3.84;100.00
45872;BME280;32333;55.844;-3.210;2022-11-20T18:24:44;98317.18;;;3.61;100.00
45872;BME280;32333;55.844;-3.210;2022-11-20T18:27:14;98318.21;;;3.32;100.00
45872;BME280;32333;55.844;-3.210;2022-11-20T18:29:43;98319.35;;;3.99;100.00
45872;BME280;32333;55.844;-3.210;2022-11-20T18:32:11;98321.88;;;4.68;100.00